Pagina principale
METAR-TAF:

METAR-TAF

Aeroporti :

Aeroporto di Bergamo-Orio al Serio

Bergamo, Italia

latitudine: 45-40N, longitudine: 009-42E, altezza: 238 m

Osservazione

Il bollettino è stato emesso 10 minuti fa, alle 10:50 UTC
Vento 3 kt da ovest/sud-ovest, variando fra sud/sud-est e ovest/nord-ovest
Temperature 13°C
Umidità 67%
Pressione 1022 hPa
Visibilità 10 km o più
nessuna nube inferiore a 1500 m e nessun cumulonembo

METAR: LIME 261050Z 25003KT 160V300 CAVOK 13/07 Q1022 NOSIG

Ora: 13:00 (11:00 UTC)

Previsione

Il bollettino è stato emesso 6 ore e 0 minuti fa, alle 05:00 UTC
Previsione valida dal 26 alle 06 UTC al 27 alle 06 UTC
Vento 5 kt da direzioni variabili
Visibilità 10 km o più
nessuna nube inferiore a 1500 m e nessun cumulonembo

TAF: LIME 260500Z 2606/2706 VRB05KT CAVOK

Osservazioni e previsioni meteorologiche di più di 4000 aeroporti (messaggi METAR e TAF).

Le stazioni disponibili sono rappresentate dai dischi gialli e rossi sulla carta.

Puntare il mouse per vedere il nome della stazione.

Clicca sopra per visualizzare le osservazioni e previsioni meteorologiche.

Per cambiare la mappa : fare clic sui pulsanti verdi con una croce nera per ingrandire, il pulsante verde con un trattino per diminuire, o sulla freccia verde per le mappe adiacenti.


METAR-TAF: